sensor_id;sensor_type;location;lat;lon;timestamp;P1;durP1;ratioP1;P2;durP2;ratioP2
5616;SDS011;2830;50.656;7.568;2023-06-10T00:00:29;24.20;;;11.27;;
5616;SDS011;2830;50.656;7.568;2023-06-10T00:02:57;22.60;;;10.10;;
5616;SDS011;2830;50.656;7.568;2023-06-10T00:05:25;28.10;;;11.33;;
5616;SDS011;2830;50.656;7.568;2023-06-10T00:07:56;25.73;;;10.43;;
5616;SDS011;2830;50.656;7.568;2023-06-10T00:10:23;24.93;;;10.30;;
5616;SDS011;2830;50.656;7.568;2023-06-10T00:12:50;21.67;;;9.33;;
5616;SDS011;2830;50.656;7.568;2023-06-10T00:15:17;23.00;;;9.87;;
5616;SDS011;2830;50.656;7.568;2023-06-10T00:17:44;24.53;;;10.63;;
5616;SDS011;2830;50.656;7.568;2023-06-10T00:20:12;24.27;;;9.73;;
5616;SDS011;2830;50.656;7.568;2023-06-10T00:22:39;31.30;;;11.60;;
5616;SDS011;2830;50.656;7.568;2023-06-10T00:25:08;22.87;;;10.40;;
5616;SDS011;2830;50.656;7.568;2023-06-10T00:27:37;23.20;;;10.37;;
5616;SDS011;2830;50.656;7.568;2023-06-10T00:30:04;25.40;;;10.87;;
5616;SDS011;2830;50.656;7.568;2023-06-10T00:32:33;22.97;;;11.33;;
5616;SDS011;2830;50.656;7.568;2023-06-10T00:35:03;26.40;;;11.40;;
5616;SDS011;2830;50.656;7.568;2023-06-10T00:37:30;24.57;;;11.10;;
5616;SDS011;2830;50.656;7.568;2023-06-10T00:39:58;23.93;;;10.90;;
5616;SDS011;2830;50.656;7.568;2023-06-10T00:42:25;24.90;;;10.17;;
5616;SDS011;2830;50.656;7.568;2023-06-10T00:44:51;24.37;;;9.90;;
5616;SDS011;2830;50.656;7.568;2023-06-10T00:47:20;23.97;;;10.47;;
5616;SDS011;2830;50.656;7.568;2023-06-10T00:49:47;26.30;;;10.83;;
5616;SDS011;2830;50.656;7.568;2023-06-10T00:52:15;25.83;;;11.60;;
5616;SDS011;2830;50.656;7.568;2023-06-10T00:54:44;25.33;;;11.47;;
5616;SDS011;2830;50.656;7.568;2023-06-10T00:57:11;24.17;;;11.07;;
5616;SDS011;2830;50.656;7.568;2023-06-10T00:59:40;23.60;;;11.27;;
5616;SDS011;2830;50.656;7.568;2023-06-10T01:02:09;22.67;;;10.40;;
5616;SDS011;2830;50.656;7.568;2023-06-10T01:04:36;24.23;;;10.80;;
5616;SDS011;2830;50.656;7.568;2023-06-10T01:07:38;23.80;;;10.00;;
5616;SDS011;2830;50.656;7.568;2023-06-10T01:10:04;24.83;;;10.80;;
5616;SDS011;2830;50.656;7.568;2023-06-10T01:12:45;22.80;;;10.33;;
5616;SDS011;2830;50.656;7.568;2023-06-10T01:15:18;25.50;;;11.63;;
5616;SDS011;2830;50.656;7.568;2023-06-10T01:17:56;24.63;;;10.90;;
5616;SDS011;2830;50.656;7.568;2023-06-10T01:20:28;21.43;;;9.07;;
5616;SDS011;2830;50.656;7.568;2023-06-10T01:22:58;24.60;;;10.27;;
5616;SDS011;2830;50.656;7.568;2023-06-10T01:25:26;22.53;;;10.83;;
5616;SDS011;2830;50.656;7.568;2023-06-10T01:28:02;29.23;;;11.33;;
5616;SDS011;2830;50.656;7.568;2023-06-10T01:30:55;20.53;;;8.40;;
5616;SDS011;2830;50.656;7.568;2023-06-10T01:33:29;22.47;;;9.83;;
5616;SDS011;2830;50.656;7.568;2023-06-10T01:35:59;22.00;;;9.40;;
5616;SDS011;2830;50.656;7.568;2023-06-10T01:38:29;20.67;;;8.77;;
5616;SDS011;2830;50.656;7.568;2023-06-10T01:40:59;22.77;;;9.73;;
5616;SDS011;2830;50.656;7.568;2023-06-10T01:43:27;21.30;;;9.60;;
5616;SDS011;2830;50.656;7.568;2023-06-10T01:45:53;23.20;;;10.23;;
5616;SDS011;2830;50.656;7.568;2023-06-10T01:48:20;25.00;;;10.43;;
5616;SDS011;2830;50.656;7.568;2023-06-10T01:50:47;22.40;;;9.17;;
5616;SDS011;2830;50.656;7.568;2023-06-10T01:53:13;23.70;;;10.03;;
5616;SDS011;2830;50.656;7.568;2023-06-10T01:55:40;23.27;;;10.70;;
5616;SDS011;2830;50.656;7.568;2023-06-10T01:58:07;24.67;;;10.23;;
5616;SDS011;2830;50.656;7.568;2023-06-10T02:00:33;24.70;;;10.30;;
5616;SDS011;2830;50.656;7.568;2023-06-10T02:03:00;24.20;;;11.20;;
5616;SDS011;2830;50.656;7.568;2023-06-10T02:05:27;23.37;;;10.30;;
5616;SDS011;2830;50.656;7.568;2023-06-10T02:07:54;25.67;;;10.70;;
5616;SDS011;2830;50.656;7.568;2023-06-10T02:10:20;23.00;;;10.23;;
5616;SDS011;2830;50.656;7.568;2023-06-10T02:12:47;23.90;;;10.20;;
5616;SDS011;2830;50.656;7.568;2023-06-10T02:15:14;21.70;;;9.50;;
5616;SDS011;2830;50.656;7.568;2023-06-10T02:17:41;24.83;;;9.70;;
5616;SDS011;2830;50.656;7.568;2023-06-10T02:20:07;22.27;;;9.60;;
5616;SDS011;2830;50.656;7.568;2023-06-10T02:22:37;23.40;;;10.80;;
5616;SDS011;2830;50.656;7.568;2023-06-10T02:25:03;20.03;;;9.10;;
5616;SDS011;2830;50.656;7.568;2023-06-10T02:27:32;23.27;;;10.17;;
5616;SDS011;2830;50.656;7.568;2023-06-10T02:29:58;23.17;;;10.17;;
5616;SDS011;2830;50.656;7.568;2023-06-10T02:32:25;22.67;;;10.00;;
5616;SDS011;2830;50.656;7.568;2023-06-10T02:34:53;22.43;;;9.47;;
5616;SDS011;2830;50.656;7.568;2023-06-10T02:37:20;24.03;;;8.87;;
5616;SDS011;2830;50.656;7.568;2023-06-10T02:39:46;25.23;;;10.07;;
5616;SDS011;2830;50.656;7.568;2023-06-10T02:42:13;24.10;;;8.93;;
5616;SDS011;2830;50.656;7.568;2023-06-10T02:44:40;22.07;;;8.97;;
5616;SDS011;2830;50.656;7.568;2023-06-10T02:47:07;21.97;;;9.70;;
5616;SDS011;2830;50.656;7.568;2023-06-10T02:49:33;22.40;;;10.60;;
5616;SDS011;2830;50.656;7.568;2023-06-10T02:52:00;22.47;;;9.80;;
5616;SDS011;2830;50.656;7.568;2023-06-10T02:54:27;23.73;;;10.37;;
5616;SDS011;2830;50.656;7.568;2023-06-10T02:56:54;25.27;;;9.37;;
5616;SDS011;2830;50.656;7.568;2023-06-10T02:59:22;21.20;;;9.90;;
5616;SDS011;2830;50.656;7.568;2023-06-10T03:01:48;24.10;;;10.60;;
5616;SDS011;2830;50.656;7.568;2023-06-10T03:04:15;25.30;;;10.23;;
5616;SDS011;2830;50.656;7.568;2023-06-10T03:06:42;25.50;;;9.20;;
5616;SDS011;2830;50.656;7.568;2023-06-10T03:09:09;22.23;;;9.90;;
5616;SDS011;2830;50.656;7.568;2023-06-10T03:11:36;22.03;;;9.20;;
5616;SDS011;2830;50.656;7.568;2023-06-10T03:14:03;22.40;;;9.60;;
5616;SDS011;2830;50.656;7.568;2023-06-10T03:16:29;23.80;;;8.97;;
5616;SDS011;2830;50.656;7.568;2023-06-10T03:18:58;23.93;;;9.57;;
5616;SDS011;2830;50.656;7.568;2023-06-10T03:21:25;20.60;;;9.23;;
5616;SDS011;2830;50.656;7.568;2023-06-10T03:23:53;22.77;;;9.50;;
5616;SDS011;2830;50.656;7.568;2023-06-10T03:26:19;21.17;;;9.60;;
5616;SDS011;2830;50.656;7.568;2023-06-10T03:28:47;22.57;;;10.47;;
5616;SDS011;2830;50.656;7.568;2023-06-10T03:31:15;22.73;;;9.10;;
5616;SDS011;2830;50.656;7.568;2023-06-10T03:33:43;25.13;;;9.40;;
5616;SDS011;2830;50.656;7.568;2023-06-10T03:36:10;23.23;;;9.10;;
5616;SDS011;2830;50.656;7.568;2023-06-10T03:38:37;22.27;;;10.17;;
5616;SDS011;2830;50.656;7.568;2023-06-10T03:41:07;22.73;;;9.47;;
5616;SDS011;2830;50.656;7.568;2023-06-10T03:43:33;22.90;;;10.57;;
5616;SDS011;2830;50.656;7.568;2023-06-10T03:46:00;23.23;;;10.07;;
5616;SDS011;2830;50.656;7.568;2023-06-10T03:48:27;20.53;;;9.43;;
5616;SDS011;2830;50.656;7.568;2023-06-10T03:50:54;23.00;;;10.43;;
5616;SDS011;2830;50.656;7.568;2023-06-10T03:53:20;22.20;;;9.40;;
5616;SDS011;2830;50.656;7.568;2023-06-10T03:55:47;22.23;;;9.97;;
5616;SDS011;2830;50.656;7.568;2023-06-10T03:58:14;23.60;;;9.70;;
5616;SDS011;2830;50.656;7.568;2023-06-10T04:00:41;20.93;;;9.23;;
5616;SDS011;2830;50.656;7.568;2023-06-10T04:03:08;22.87;;;10.40;;
5616;SDS011;2830;50.656;7.568;2023-06-10T04:05:40;22.50;;;9.00;;
5616;SDS011;2830;50.656;7.568;2023-06-10T04:08:08;21.60;;;9.73;;
5616;SDS011;2830;50.656;7.568;2023-06-10T04:10:35;24.90;;;9.20;;
5616;SDS011;2830;50.656;7.568;2023-06-10T04:13:02;22.30;;;8.97;;
5616;SDS011;2830;50.656;7.568;2023-06-10T04:15:29;23.40;;;9.27;;
5616;SDS011;2830;50.656;7.568;2023-06-10T04:17:59;21.30;;;9.60;;
5616;SDS011;2830;50.656;7.568;2023-06-10T04:20:27;21.97;;;9.07;;
5616;SDS011;2830;50.656;7.568;2023-06-10T04:22:54;23.13;;;9.90;;
5616;SDS011;2830;50.656;7.568;2023-06-10T04:25:21;24.73;;;9.97;;
5616;SDS011;2830;50.656;7.568;2023-06-10T04:27:47;20.83;;;9.70;;
5616;SDS011;2830;50.656;7.568;2023-06-10T04:30:14;21.83;;;9.20;;
5616;SDS011;2830;50.656;7.568;2023-06-10T04:32:42;21.10;;;9.27;;
5616;SDS011;2830;50.656;7.568;2023-06-10T04:35:11;24.03;;;11.33;;
5616;SDS011;2830;50.656;7.568;2023-06-10T04:37:39;24.17;;;9.00;;
5616;SDS011;2830;50.656;7.568;2023-06-10T04:40:06;20.10;;;8.53;;
5616;SDS011;2830;50.656;7.568;2023-06-10T04:42:34;22.77;;;9.80;;
5616;SDS011;2830;50.656;7.568;2023-06-10T04:45:01;29.20;;;9.80;;
5616;SDS011;2830;50.656;7.568;2023-06-10T04:47:28;21.83;;;9.63;;
5616;SDS011;2830;50.656;7.568;2023-06-10T04:49:55;22.10;;;10.20;;
5616;SDS011;2830;50.656;7.568;2023-06-10T04:52:22;22.47;;;10.47;;
5616;SDS011;2830;50.656;7.568;2023-06-10T04:54:48;24.77;;;9.50;;
5616;SDS011;2830;50.656;7.568;2023-06-10T04:57:15;24.70;;;9.23;;
5616;SDS011;2830;50.656;7.568;2023-06-10T04:59:42;28.03;;;10.37;;
5616;SDS011;2830;50.656;7.568;2023-06-10T05:02:08;21.97;;;9.80;;
5616;SDS011;2830;50.656;7.568;2023-06-10T05:04:35;21.60;;;9.83;;
5616;SDS011;2830;50.656;7.568;2023-06-10T05:07:02;24.20;;;9.93;;
5616;SDS011;2830;50.656;7.568;2023-06-10T05:09:30;25.20;;;9.57;;
5616;SDS011;2830;50.656;7.568;2023-06-10T05:11:56;23.27;;;9.30;;
5616;SDS011;2830;50.656;7.568;2023-06-10T05:14:24;23.00;;;8.33;;
5616;SDS011;2830;50.656;7.568;2023-06-10T05:16:50;23.80;;;9.97;;
5616;SDS011;2830;50.656;7.568;2023-06-10T05:19:17;22.03;;;8.70;;
5616;SDS011;2830;50.656;7.568;2023-06-10T05:21:44;20.73;;;8.23;;
5616;SDS011;2830;50.656;7.568;2023-06-10T05:24:11;22.77;;;9.00;;
5616;SDS011;2830;50.656;7.568;2023-06-10T05:26:38;20.77;;;8.10;;
5616;SDS011;2830;50.656;7.568;2023-06-10T05:29:05;23.07;;;8.60;;
5616;SDS011;2830;50.656;7.568;2023-06-10T05:31:32;21.00;;;7.27;;
5616;SDS011;2830;50.656;7.568;2023-06-10T05:33:58;21.40;;;7.67;;
5616;SDS011;2830;50.656;7.568;2023-06-10T05:36:25;21.70;;;7.50;;
5616;SDS011;2830;50.656;7.568;2023-06-10T05:38:52;21.60;;;7.47;;
5616;SDS011;2830;50.656;7.568;2023-06-10T05:41:19;22.07;;;7.87;;
5616;SDS011;2830;50.656;7.568;2023-06-10T05:43:48;22.10;;;7.83;;
5616;SDS011;2830;50.656;7.568;2023-06-10T05:46:15;21.73;;;7.30;;
5616;SDS011;2830;50.656;7.568;2023-06-10T05:48:42;22.13;;;6.60;;
5616;SDS011;2830;50.656;7.568;2023-06-10T05:51:08;20.70;;;6.73;;
5616;SDS011;2830;50.656;7.568;2023-06-10T05:53:36;20.73;;;6.60;;
5616;SDS011;2830;50.656;7.568;2023-06-10T05:56:04;21.60;;;7.00;;
5616;SDS011;2830;50.656;7.568;2023-06-10T05:58:31;19.10;;;6.27;;
5616;SDS011;2830;50.656;7.568;2023-06-10T06:00:57;20.10;;;7.50;;
5616;SDS011;2830;50.656;7.568;2023-06-10T06:03:24;21.73;;;6.90;;
5616;SDS011;2830;50.656;7.568;2023-06-10T06:05:51;20.67;;;7.33;;
5616;SDS011;2830;50.656;7.568;2023-06-10T06:08:18;18.97;;;6.87;;
5616;SDS011;2830;50.656;7.568;2023-06-10T06:10:45;20.00;;;7.50;;
5616;SDS011;2830;50.656;7.568;2023-06-10T06:13:12;19.90;;;6.50;;
5616;SDS011;2830;50.656;7.568;2023-06-10T06:15:38;21.90;;;7.30;;
5616;SDS011;2830;50.656;7.568;2023-06-10T06:18:05;24.67;;;7.53;;
5616;SDS011;2830;50.656;7.568;2023-06-10T06:20:32;18.57;;;6.37;;
5616;SDS011;2830;50.656;7.568;2023-06-10T06:22:59;20.20;;;6.70;;
5616;SDS011;2830;50.656;7.568;2023-06-10T06:25:25;19.27;;;7.00;;
5616;SDS011;2830;50.656;7.568;2023-06-10T06:27:52;18.97;;;6.37;;
5616;SDS011;2830;50.656;7.568;2023-06-10T06:30:19;19.50;;;6.50;;
5616;SDS011;2830;50.656;7.568;2023-06-10T06:32:46;20.27;;;6.60;;
5616;SDS011;2830;50.656;7.568;2023-06-10T06:35:12;20.07;;;6.63;;
5616;SDS011;2830;50.656;7.568;2023-06-10T06:37:39;23.43;;;6.83;;
5616;SDS011;2830;50.656;7.568;2023-06-10T06:40:06;20.17;;;6.73;;
5616;SDS011;2830;50.656;7.568;2023-06-10T06:42:33;19.23;;;5.80;;
5616;SDS011;2830;50.656;7.568;2023-06-10T06:45:00;21.03;;;6.43;;
5616;SDS011;2830;50.656;7.568;2023-06-10T06:47:27;19.43;;;5.40;;
5616;SDS011;2830;50.656;7.568;2023-06-10T06:49:54;18.57;;;6.10;;
5616;SDS011;2830;50.656;7.568;2023-06-10T06:52:21;21.90;;;5.93;;
5616;SDS011;2830;50.656;7.568;2023-06-10T06:54:48;18.50;;;6.00;;
5616;SDS011;2830;50.656;7.568;2023-06-10T06:57:15;20.17;;;5.50;;
5616;SDS011;2830;50.656;7.568;2023-06-10T06:59:42;20.50;;;6.50;;
5616;SDS011;2830;50.656;7.568;2023-06-10T07:02:09;21.10;;;5.70;;
5616;SDS011;2830;50.656;7.568;2023-06-10T07:04:36;18.37;;;6.40;;
5616;SDS011;2830;50.656;7.568;2023-06-10T07:07:04;20.70;;;5.83;;
5616;SDS011;2830;50.656;7.568;2023-06-10T07:09:33;20.03;;;6.10;;
5616;SDS011;2830;50.656;7.568;2023-06-10T07:12:00;18.20;;;5.60;;
5616;SDS011;2830;50.656;7.568;2023-06-10T07:14:26;19.20;;;6.23;;
5616;SDS011;2830;50.656;7.568;2023-06-10T07:16:53;23.00;;;5.80;;
5616;SDS011;2830;50.656;7.568;2023-06-10T07:19:20;19.70;;;5.60;;
5616;SDS011;2830;50.656;7.568;2023-06-10T07:21:47;18.00;;;5.17;;
5616;SDS011;2830;50.656;7.568;2023-06-10T07:24:13;19.17;;;5.93;;
5616;SDS011;2830;50.656;7.568;2023-06-10T07:26:40;19.00;;;5.30;;
5616;SDS011;2830;50.656;7.568;2023-06-10T07:29:13;17.97;;;5.40;;
5616;SDS011;2830;50.656;7.568;2023-06-10T07:31:40;18.80;;;5.30;;
5616;SDS011;2830;50.656;7.568;2023-06-10T07:34:07;18.60;;;4.50;;
5616;SDS011;2830;50.656;7.568;2023-06-10T07:36:34;17.87;;;5.10;;
5616;SDS011;2830;50.656;7.568;2023-06-10T07:39:02;19.03;;;4.93;;
5616;SDS011;2830;50.656;7.568;2023-06-10T07:41:29;22.10;;;5.37;;
5616;SDS011;2830;50.656;7.568;2023-06-10T07:43:55;17.30;;;4.77;;
5616;SDS011;2830;50.656;7.568;2023-06-10T07:46:22;17.43;;;4.20;;
5616;SDS011;2830;50.656;7.568;2023-06-10T07:48:50;18.47;;;4.50;;
5616;SDS011;2830;50.656;7.568;2023-06-10T07:51:17;17.80;;;4.93;;
5616;SDS011;2830;50.656;7.568;2023-06-10T07:53:45;20.70;;;5.50;;
5616;SDS011;2830;50.656;7.568;2023-06-10T07:56:12;21.80;;;6.00;;
5616;SDS011;2830;50.656;7.568;2023-06-10T07:58:39;19.73;;;5.37;;
5616;SDS011;2830;50.656;7.568;2023-06-10T08:01:05;19.33;;;4.97;;
5616;SDS011;2830;50.656;7.568;2023-06-10T08:03:32;19.53;;;5.13;;
5616;SDS011;2830;50.656;7.568;2023-06-10T08:05:59;19.37;;;4.60;;
5616;SDS011;2830;50.656;7.568;2023-06-10T08:08:27;22.93;;;5.30;;
5616;SDS011;2830;50.656;7.568;2023-06-10T08:10:53;18.93;;;5.40;;
5616;SDS011;2830;50.656;7.568;2023-06-10T08:13:20;20.13;;;5.10;;
5616;SDS011;2830;50.656;7.568;2023-06-10T08:15:47;20.53;;;5.03;;
5616;SDS011;2830;50.656;7.568;2023-06-10T08:18:16;19.37;;;5.43;;
5616;SDS011;2830;50.656;7.568;2023-06-10T08:20:43;19.80;;;4.97;;
5616;SDS011;2830;50.656;7.568;2023-06-10T08:23:10;18.13;;;4.87;;
5616;SDS011;2830;50.656;7.568;2023-06-10T08:25:36;17.73;;;4.33;;
5616;SDS011;2830;50.656;7.568;2023-06-10T08:28:03;17.57;;;4.33;;
5616;SDS011;2830;50.656;7.568;2023-06-10T08:30:30;17.70;;;4.80;;
5616;SDS011;2830;50.656;7.568;2023-06-10T08:32:56;18.43;;;4.50;;
5616;SDS011;2830;50.656;7.568;2023-06-10T08:35:23;18.73;;;4.50;;
5616;SDS011;2830;50.656;7.568;2023-06-10T08:37:50;19.40;;;4.53;;
5616;SDS011;2830;50.656;7.568;2023-06-10T08:40:17;17.70;;;4.80;;
5616;SDS011;2830;50.656;7.568;2023-06-10T08:42:45;19.90;;;4.60;;
5616;SDS011;2830;50.656;7.568;2023-06-10T08:45:19;17.20;;;4.80;;
5616;SDS011;2830;50.656;7.568;2023-06-10T08:47:49;18.23;;;4.50;;
5616;SDS011;2830;50.656;7.568;2023-06-10T08:50:21;17.33;;;4.80;;
5616;SDS011;2830;50.656;7.568;2023-06-10T08:52:50;16.43;;;4.77;;
5616;SDS011;2830;50.656;7.568;2023-06-10T08:55:23;17.33;;;4.37;;
5616;SDS011;2830;50.656;7.568;2023-06-10T08:58:01;18.20;;;4.73;;
5616;SDS011;2830;50.656;7.568;2023-06-10T09:00:29;16.20;;;4.90;;
5616;SDS011;2830;50.656;7.568;2023-06-10T09:02:56;16.00;;;4.20;;
5616;SDS011;2830;50.656;7.568;2023-06-10T09:05:27;19.53;;;6.00;;
5616;SDS011;2830;50.656;7.568;2023-06-10T09:07:56;18.47;;;5.40;;
5616;SDS011;2830;50.656;7.568;2023-06-10T09:10:23;16.20;;;4.00;;
5616;SDS011;2830;50.656;7.568;2023-06-10T09:12:51;16.40;;;4.20;;
5616;SDS011;2830;50.656;7.568;2023-06-10T09:15:18;18.20;;;4.90;;
5616;SDS011;2830;50.656;7.568;2023-06-10T09:17:45;19.40;;;4.33;;
5616;SDS011;2830;50.656;7.568;2023-06-10T09:20:12;16.37;;;4.70;;
5616;SDS011;2830;50.656;7.568;2023-06-10T09:22:40;16.50;;;4.20;;
5616;SDS011;2830;50.656;7.568;2023-06-10T09:25:09;15.90;;;4.27;;
5616;SDS011;2830;50.656;7.568;2023-06-10T09:27:44;16.10;;;4.10;;
5616;SDS011;2830;50.656;7.568;2023-06-10T09:30:30;16.40;;;4.60;;
5616;SDS011;2830;50.656;7.568;2023-06-10T09:33:02;17.63;;;4.03;;
5616;SDS011;2830;50.656;7.568;2023-06-10T09:35:35;18.83;;;4.70;;
5616;SDS011;2830;50.656;7.568;2023-06-10T09:38:01;16.93;;;4.33;;
5616;SDS011;2830;50.656;7.568;2023-06-10T09:40:28;17.23;;;4.47;;
5616;SDS011;2830;50.656;7.568;2023-06-10T09:42:56;19.40;;;4.73;;
5616;SDS011;2830;50.656;7.568;2023-06-10T09:45:25;19.97;;;4.40;;
5616;SDS011;2830;50.656;7.568;2023-06-10T09:47:58;19.43;;;5.10;;
5616;SDS011;2830;50.656;7.568;2023-06-10T09:50:24;18.00;;;4.07;;
5616;SDS011;2830;50.656;7.568;2023-06-10T09:52:53;18.37;;;4.60;;
5616;SDS011;2830;50.656;7.568;2023-06-10T09:55:19;17.53;;;4.30;;
5616;SDS011;2830;50.656;7.568;2023-06-10T09:57:48;18.57;;;4.10;;
5616;SDS011;2830;50.656;7.568;2023-06-10T10:00:15;18.10;;;4.43;;
5616;SDS011;2830;50.656;7.568;2023-06-10T10:02:44;18.40;;;4.67;;
5616;SDS011;2830;50.656;7.568;2023-06-10T10:05:22;19.60;;;4.70;;
5616;SDS011;2830;50.656;7.568;2023-06-10T10:07:49;18.73;;;5.00;;
5616;SDS011;2830;50.656;7.568;2023-06-10T10:10:17;19.37;;;4.30;;
5616;SDS011;2830;50.656;7.568;2023-06-10T10:12:46;19.30;;;4.40;;
5616;SDS011;2830;50.656;7.568;2023-06-10T10:15:15;22.07;;;4.43;;
5616;SDS011;2830;50.656;7.568;2023-06-10T10:17:45;18.63;;;4.33;;
5616;SDS011;2830;50.656;7.568;2023-06-10T10:20:16;24.07;;;4.47;;
5616;SDS011;2830;50.656;7.568;2023-06-10T10:22:46;18.03;;;3.60;;
5616;SDS011;2830;50.656;7.568;2023-06-10T10:25:16;19.50;;;5.07;;
5616;SDS011;2830;50.656;7.568;2023-06-10T10:27:51;16.70;;;3.83;;
5616;SDS011;2830;50.656;7.568;2023-06-10T10:30:21;18.33;;;4.33;;
5616;SDS011;2830;50.656;7.568;2023-06-10T10:33:00;19.33;;;4.20;;
5616;SDS011;2830;50.656;7.568;2023-06-10T10:35:35;19.17;;;3.80;;
5616;SDS011;2830;50.656;7.568;2023-06-10T10:38:03;15.53;;;3.93;;
5616;SDS011;2830;50.656;7.568;2023-06-10T10:40:31;17.80;;;4.13;;
5616;SDS011;2830;50.656;7.568;2023-06-10T10:42:59;17.03;;;3.50;;
5616;SDS011;2830;50.656;7.568;2023-06-10T10:45:29;15.53;;;3.70;;
5616;SDS011;2830;50.656;7.568;2023-06-10T10:47:56;16.70;;;3.80;;
5616;SDS011;2830;50.656;7.568;2023-06-10T10:50:23;19.80;;;3.73;;
5616;SDS011;2830;50.656;7.568;2023-06-10T10:52:55;18.03;;;3.73;;
5616;SDS011;2830;50.656;7.568;2023-06-10T10:55:26;20.10;;;3.63;;
5616;SDS011;2830;50.656;7.568;2023-06-10T10:57:54;17.07;;;4.00;;
5616;SDS011;2830;50.656;7.568;2023-06-10T11:00:32;16.83;;;3.90;;
5616;SDS011;2830;50.656;7.568;2023-06-10T11:03:03;15.77;;;3.23;;
5616;SDS011;2830;50.656;7.568;2023-06-10T11:05:41;19.73;;;3.70;;
5616;SDS011;2830;50.656;7.568;2023-06-10T11:08:15;16.67;;;4.17;;
5616;SDS011;2830;50.656;7.568;2023-06-10T11:11:17;16.83;;;4.30;;
5616;SDS011;2830;50.656;7.568;2023-06-10T11:16:42;15.87;;;3.20;;
5616;SDS011;2830;50.656;7.568;2023-06-10T11:19:10;15.40;;;3.13;;
5616;SDS011;2830;50.656;7.568;2023-06-10T11:21:57;14.47;;;3.20;;
5616;SDS011;2830;50.656;7.568;2023-06-10T11:24:26;18.07;;;4.00;;
5616;SDS011;2830;50.656;7.568;2023-06-10T11:26:55;16.43;;;3.40;;
5616;SDS011;2830;50.656;7.568;2023-06-10T11:32:30;17.33;;;4.43;;
5616;SDS011;2830;50.656;7.568;2023-06-10T11:34:59;16.67;;;4.40;;
5616;SDS011;2830;50.656;7.568;2023-06-10T11:37:26;16.43;;;3.50;;
5616;SDS011;2830;50.656;7.568;2023-06-10T11:39:54;18.33;;;3.73;;
5616;SDS011;2830;50.656;7.568;2023-06-10T11:42:22;20.80;;;4.07;;
5616;SDS011;2830;50.656;7.568;2023-06-10T11:44:52;19.50;;;4.10;;
5616;SDS011;2830;50.656;7.568;2023-06-10T11:47:20;16.77;;;4.17;;
5616;SDS011;2830;50.656;7.568;2023-06-10T11:49:57;19.40;;;3.50;;
5616;SDS011;2830;50.656;7.568;2023-06-10T11:52:28;17.37;;;3.67;;
5616;SDS011;2830;50.656;7.568;2023-06-10T11:54:55;17.90;;;3.50;;
5616;SDS011;2830;50.656;7.568;2023-06-10T11:57:22;18.93;;;4.10;;
5616;SDS011;2830;50.656;7.568;2023-06-10T11:59:49;17.30;;;4.03;;
5616;SDS011;2830;50.656;7.568;2023-06-10T12:02:16;19.60;;;4.27;;
5616;SDS011;2830;50.656;7.568;2023-06-10T12:04:43;17.00;;;4.00;;
5616;SDS011;2830;50.656;7.568;2023-06-10T12:07:16;24.57;;;4.00;;
5616;SDS011;2830;50.656;7.568;2023-06-10T12:09:45;16.10;;;3.53;;
5616;SDS011;2830;50.656;7.568;2023-06-10T12:12:12;17.40;;;4.10;;
5616;SDS011;2830;50.656;7.568;2023-06-10T12:14:55;17.30;;;4.00;;
5616;SDS011;2830;50.656;7.568;2023-06-10T12:17:34;17.00;;;3.73;;
5616;SDS011;2830;50.656;7.568;2023-06-10T12:20:08;21.70;;;4.03;;
5616;SDS011;2830;50.656;7.568;2023-06-10T12:22:51;17.80;;;3.50;;
5616;SDS011;2830;50.656;7.568;2023-06-10T12:25:23;20.10;;;4.30;;
5616;SDS011;2830;50.656;7.568;2023-06-10T12:27:55;16.33;;;3.67;;
5616;SDS011;2830;50.656;7.568;2023-06-10T12:30:24;19.30;;;4.10;;
5616;SDS011;2830;50.656;7.568;2023-06-10T12:32:52;16.30;;;3.63;;
5616;SDS011;2830;50.656;7.568;2023-06-10T12:35:20;23.93;;;4.00;;
5616;SDS011;2830;50.656;7.568;2023-06-10T12:38:03;21.20;;;4.00;;
5616;SDS011;2830;50.656;7.568;2023-06-10T12:40:33;22.50;;;6.97;;
5616;SDS011;2830;50.656;7.568;2023-06-10T12:43:02;18.43;;;4.30;;
5616;SDS011;2830;50.656;7.568;2023-06-10T12:45:33;19.80;;;4.90;;
5616;SDS011;2830;50.656;7.568;2023-06-10T12:48:04;19.90;;;5.07;;
5616;SDS011;2830;50.656;7.568;2023-06-10T12:50:39;20.10;;;4.30;;
5616;SDS011;2830;50.656;7.568;2023-06-10T12:53:07;17.90;;;4.40;;
5616;SDS011;2830;50.656;7.568;2023-06-10T12:55:34;19.90;;;4.67;;
5616;SDS011;2830;50.656;7.568;2023-06-10T12:58:01;18.57;;;4.50;;
5616;SDS011;2830;50.656;7.568;2023-06-10T13:00:29;18.03;;;4.00;;
5616;SDS011;2830;50.656;7.568;2023-06-10T13:02:57;16.30;;;3.43;;
5616;SDS011;2830;50.656;7.568;2023-06-10T13:05:27;18.80;;;4.17;;
5616;SDS011;2830;50.656;7.568;2023-06-10T13:07:54;18.83;;;4.27;;
5616;SDS011;2830;50.656;7.568;2023-06-10T13:10:21;19.90;;;4.67;;
5616;SDS011;2830;50.656;7.568;2023-06-10T13:12:51;17.60;;;3.90;;
5616;SDS011;2830;50.656;7.568;2023-06-10T13:15:18;19.33;;;4.00;;
5616;SDS011;2830;50.656;7.568;2023-06-10T13:17:45;19.70;;;3.73;;
5616;SDS011;2830;50.656;7.568;2023-06-10T13:20:16;18.27;;;4.23;;
5616;SDS011;2830;50.656;7.568;2023-06-10T13:22:43;21.70;;;4.53;;
5616;SDS011;2830;50.656;7.568;2023-06-10T13:25:11;20.57;;;4.70;;
5616;SDS011;2830;50.656;7.568;2023-06-10T13:27:38;20.00;;;4.30;;
5616;SDS011;2830;50.656;7.568;2023-06-10T13:30:06;22.77;;;4.63;;
5616;SDS011;2830;50.656;7.568;2023-06-10T13:32:33;21.17;;;4.47;;
5616;SDS011;2830;50.656;7.568;2023-06-10T13:35:00;22.30;;;4.40;;
5616;SDS011;2830;50.656;7.568;2023-06-10T13:37:30;21.27;;;4.97;;
5616;SDS011;2830;50.656;7.568;2023-06-10T13:39:57;22.30;;;4.70;;
5616;SDS011;2830;50.656;7.568;2023-06-10T13:42:24;19.13;;;4.20;;
5616;SDS011;2830;50.656;7.568;2023-06-10T13:44:52;19.63;;;4.50;;
5616;SDS011;2830;50.656;7.568;2023-06-10T13:47:19;18.40;;;4.40;;
5616;SDS011;2830;50.656;7.568;2023-06-10T13:49:47;22.23;;;4.07;;
5616;SDS011;2830;50.656;7.568;2023-06-10T13:52:13;17.97;;;4.10;;
5616;SDS011;2830;50.656;7.568;2023-06-10T13:54:40;20.33;;;4.60;;
5616;SDS011;2830;50.656;7.568;2023-06-10T13:57:07;19.53;;;4.40;;
5616;SDS011;2830;50.656;7.568;2023-06-10T13:59:36;20.13;;;3.60;;
5616;SDS011;2830;50.656;7.568;2023-06-10T14:02:03;20.33;;;4.20;;
5616;SDS011;2830;50.656;7.568;2023-06-10T14:04:30;18.10;;;3.73;;
5616;SDS011;2830;50.656;7.568;2023-06-10T14:06:57;18.13;;;4.17;;
5616;SDS011;2830;50.656;7.568;2023-06-10T14:09:24;20.70;;;4.20;;
5616;SDS011;2830;50.656;7.568;2023-06-10T14:11:50;19.27;;;4.67;;
5616;SDS011;2830;50.656;7.568;2023-06-10T14:14:18;19.73;;;4.10;;
5616;SDS011;2830;50.656;7.568;2023-06-10T14:16:45;22.43;;;4.07;;
5616;SDS011;2830;50.656;7.568;2023-06-10T14:19:12;18.60;;;4.47;;
5616;SDS011;2830;50.656;7.568;2023-06-10T14:21:39;18.73;;;4.13;;
5616;SDS011;2830;50.656;7.568;2023-06-10T14:24:05;20.43;;;4.90;;
5616;SDS011;2830;50.656;7.568;2023-06-10T14:26:32;19.30;;;4.33;;
5616;SDS011;2830;50.656;7.568;2023-06-10T14:28:59;19.70;;;4.10;;
5616;SDS011;2830;50.656;7.568;2023-06-10T14:31:26;26.10;;;4.63;;
5616;SDS011;2830;50.656;7.568;2023-06-10T14:33:53;20.30;;;4.10;;
5616;SDS011;2830;50.656;7.568;2023-06-10T14:36:19;22.33;;;4.10;;
5616;SDS011;2830;50.656;7.568;2023-06-10T14:38:46;18.37;;;4.13;;
5616;SDS011;2830;50.656;7.568;2023-06-10T14:41:13;18.10;;;3.67;;
5616;SDS011;2830;50.656;7.568;2023-06-10T14:43:40;19.43;;;4.40;;
5616;SDS011;2830;50.656;7.568;2023-06-10T14:46:07;18.57;;;4.20;;
5616;SDS011;2830;50.656;7.568;2023-06-10T14:48:33;18.20;;;3.50;;
5616;SDS011;2830;50.656;7.568;2023-06-10T14:51:00;18.90;;;4.30;;
5616;SDS011;2830;50.656;7.568;2023-06-10T14:53:27;18.23;;;4.10;;
5616;SDS011;2830;50.656;7.568;2023-06-10T14:55:54;19.97;;;4.63;;
5616;SDS011;2830;50.656;7.568;2023-06-10T14:58:21;23.03;;;4.13;;
5616;SDS011;2830;50.656;7.568;2023-06-10T15:00:47;21.13;;;4.73;;
5616;SDS011;2830;50.656;7.568;2023-06-10T15:03:14;28.60;;;4.70;;
5616;SDS011;2830;50.656;7.568;2023-06-10T15:05:41;18.40;;;4.20;;
5616;SDS011;2830;50.656;7.568;2023-06-10T15:08:08;20.37;;;4.27;;
5616;SDS011;2830;50.656;7.568;2023-06-10T15:10:34;20.07;;;4.23;;
5616;SDS011;2830;50.656;7.568;2023-06-10T15:13:01;18.87;;;4.57;;